createdAt,value
2022-08-30T00:00:39.337Z,1.52
2022-08-30T00:05:43.749Z,2.40
2022-08-30T00:10:46.765Z,1.80
2022-08-30T00:15:49.557Z,1.63
2022-08-30T00:20:52.476Z,1.77
2022-08-30T00:25:55.478Z,1.73
2022-08-30T00:30:58.628Z,1.58
2022-08-30T00:36:00.633Z,1.70
2022-08-30T00:41:02.473Z,3.13
2022-08-30T00:46:08.372Z,1.98
2022-08-30T00:51:14.231Z,1.88
2022-08-30T00:56:18.054Z,2.35
2022-08-30T01:01:21.046Z,2.00
2022-08-30T01:06:22.976Z,2.05
2022-08-30T01:11:25.436Z,1.42
2022-08-30T01:16:27.378Z,1.67
2022-08-30T01:22:05.725Z,1.80
2022-08-30T01:27:07.520Z,1.75
2022-08-30T01:32:21.043Z,1.92
2022-08-30T01:37:30.238Z,1.95
2022-08-30T01:42:32.511Z,1.70
2022-08-30T01:47:35.363Z,1.92
2022-08-30T01:52:37.959Z,1.90
2022-08-30T01:57:39.806Z,2.30
2022-08-30T02:02:41.675Z,2.70
2022-08-30T02:07:43.610Z,1.67
2022-08-30T02:12:45.559Z,1.65
2022-08-30T02:17:47.689Z,2.40
2022-08-30T02:22:49.668Z,2.08
2022-08-30T02:27:51.567Z,1.83
2022-08-30T02:32:53.346Z,1.67
2022-08-30T02:37:58.311Z,2.08
2022-08-30T02:43:00.635Z,2.17
2022-08-30T02:48:02.838Z,2.55
2022-08-30T02:53:04.699Z,2.15
2022-08-30T02:58:08.238Z,2.13
2022-08-30T03:03:10.121Z,2.55
2022-08-30T03:08:11.938Z,2.25
2022-08-30T03:13:14.077Z,2.13
2022-08-30T03:18:17.341Z,2.00
2022-08-30T03:23:21.781Z,1.95
2022-08-30T03:28:24.298Z,1.90
2022-08-30T03:33:26.781Z,2.17
2022-08-30T03:38:29.547Z,1.83
2022-08-30T03:43:33.615Z,2.15
2022-08-30T03:48:36.051Z,2.08
2022-08-30T03:53:37.957Z,1.73
2022-08-30T03:58:40.827Z,2.22
2022-08-30T04:03:43.042Z,3.90
2022-08-30T04:08:46.310Z,2.15
2022-08-30T04:13:49.687Z,2.08
2022-08-30T04:18:51.575Z,1.88
2022-08-30T04:23:53.356Z,2.20
2022-08-30T04:28:55.776Z,2.10
2022-08-30T04:33:57.801Z,2.15
2022-08-30T04:38:59.707Z,2.10
2022-08-30T04:44:03.737Z,2.25
2022-08-30T04:49:05.599Z,2.60
2022-08-30T04:54:08.735Z,2.13
2022-08-30T04:59:10.747Z,2.97
2022-08-30T05:04:13.865Z,2.03
2022-08-30T05:09:16.081Z,2.60
2022-08-30T05:14:18.100Z,2.72
2022-08-30T05:19:20.211Z,2.53
2022-08-30T05:24:22.187Z,2.40
2022-08-30T05:29:25.080Z,2.08
2022-08-30T05:34:30.519Z,2.65
2022-08-30T05:39:44.971Z,2.67
2022-08-30T05:44:54.406Z,1.92
2022-08-30T05:49:56.319Z,2.53
2022-08-30T05:55:04.367Z,2.85
2022-08-30T06:00:10.672Z,2.70
2022-08-30T06:05:15.498Z,4.07
2022-08-30T06:10:17.795Z,2.97
2022-08-30T06:15:19.767Z,2.83
2022-08-30T06:20:21.654Z,2.92
2022-08-30T06:25:23.647Z,2.85
2022-08-30T06:30:25.993Z,2.40
2022-08-30T06:35:30.701Z,2.55
2022-08-30T06:40:36.619Z,2.30
2022-08-30T06:45:38.831Z,2.83
2022-08-30T06:50:42.476Z,2.70
2022-08-30T06:55:44.396Z,2.85
2022-08-30T07:00:46.961Z,2.53
2022-08-30T07:05:49.429Z,2.25
2022-08-30T07:10:54.651Z,2.20
2022-08-30T07:15:57.840Z,1.92
2022-08-30T07:21:07.952Z,2.58
2022-08-30T07:26:15.081Z,2.65
2022-08-30T07:31:19.909Z,1.42
2022-08-30T07:36:22.561Z,1.70
2022-08-30T07:41:34.287Z,1.80
2022-08-30T07:46:39.227Z,2.25
2022-08-30T07:51:41.588Z,2.40
2022-08-30T07:56:43.461Z,2.13
2022-08-30T08:01:45.309Z,1.92
2022-08-30T08:06:47.917Z,2.25
2022-08-30T08:11:50.385Z,1.98
2022-08-30T08:16:52.784Z,2.50
2022-08-30T08:22:15.660Z,2.25
2022-08-30T08:27:19.269Z,2.33
2022-08-30T08:32:21.321Z,1.92
2022-08-30T08:37:26.695Z,1.90
2022-08-30T08:42:37.057Z,2.35
2022-08-30T08:47:48.369Z,2.22
2022-08-30T08:53:25.080Z,2.55
2022-08-30T08:58:31.170Z,1.90
2022-08-30T09:03:33.316Z,2.13
2022-08-30T09:08:37.201Z,2.50
2022-08-30T09:13:39.085Z,2.33
2022-08-30T09:24:15.764Z,1.63
2022-08-30T09:29:23.256Z,1.40
2022-08-30T09:34:25.075Z,1.40
2022-08-30T09:39:30.487Z,1.30
2022-08-30T09:44:37.745Z,1.60
2022-08-30T09:49:43.270Z,1.20
2022-08-30T09:54:58.265Z,1.50
2022-08-30T10:00:18.625Z,1.65
2022-08-30T10:05:49.998Z,1.52
2022-08-30T10:11:03.037Z,1.50
2022-08-30T10:16:18.076Z,1.40
2022-08-30T10:21:54.368Z,1.40
2022-08-30T10:27:23.992Z,1.35
2022-08-30T10:32:39.995Z,1.48
2022-08-30T10:37:48.640Z,1.20
2022-08-30T10:42:56.648Z,1.60
2022-08-30T10:48:12.105Z,2.63
2022-08-30T10:53:22.751Z,2.05
2022-08-30T10:58:25.078Z,1.88
2022-08-30T11:03:51.754Z,1.63
2022-08-30T11:09:24.591Z,1.80
2022-08-30T11:14:30.548Z,1.60
2022-08-30T11:19:40.842Z,1.60
2022-08-30T11:25:10.135Z,1.35
2022-08-30T11:30:26.418Z,1.25
2022-08-30T11:35:48.432Z,1.42
2022-08-30T11:40:58.025Z,1.48
2022-08-30T11:46:17.130Z,1.52
2022-08-30T11:51:24.160Z,1.50
2022-08-30T11:56:47.000Z,1.80
2022-08-30T12:01:51.943Z,1.60
2022-08-30T12:07:05.880Z,1.42
2022-08-30T12:12:09.507Z,1.52
2022-08-30T12:18:15.545Z,1.55
2022-08-30T12:23:38.233Z,1.40
2022-08-30T12:28:49.706Z,1.25
2022-08-30T12:34:00.722Z,1.45
2022-08-30T12:39:24.508Z,1.50
2022-08-30T12:44:28.642Z,1.20
2022-08-30T12:49:37.081Z,1.27
2022-08-30T12:54:41.394Z,1.23
2022-08-30T12:59:54.044Z,1.50
2022-08-30T13:04:58.195Z,1.33
2022-08-30T13:10:14.576Z,1.55
2022-08-30T13:15:27.695Z,1.55
2022-08-30T13:20:29.604Z,1.70
2022-08-30T13:25:33.060Z,1.90
2022-08-30T13:30:35.955Z,1.42
2022-08-30T13:35:38.095Z,1.75
2022-08-30T13:40:41.920Z,1.88
2022-08-30T13:45:44.115Z,1.38
2022-08-30T13:50:46.415Z,1.52
2022-08-30T13:55:48.422Z,1.30
2022-08-30T14:00:51.176Z,1.30
2022-08-30T14:06:29.525Z,1.27
2022-08-30T14:11:22.416Z,1.50
2022-08-30T14:16:28.043Z,1.42
2022-08-30T14:21:30.335Z,1.27
2022-08-30T14:26:39.680Z,1.40
2022-08-30T14:31:42.900Z,1.13
2022-08-30T14:36:46.799Z,1.13
2022-08-30T14:41:53.023Z,1.20
2022-08-30T14:46:56.166Z,1.13
2022-08-30T14:51:58.987Z,1.30
2022-08-30T14:57:01.226Z,1.50
2022-08-30T15:02:03.243Z,1.17
2022-08-30T15:07:05.265Z,1.48
2022-08-30T15:12:07.618Z,1.13
2022-08-30T15:17:09.845Z,1.23
2022-08-30T15:22:12.079Z,1.50
2022-08-30T15:27:17.474Z,1.50
2022-08-30T15:32:19.660Z,1.15
2022-08-30T15:37:27.867Z,1.48
2022-08-30T15:42:34.163Z,1.15
2022-08-30T15:47:36.353Z,1.40
2022-08-30T15:52:38.963Z,1.10
2022-08-30T15:57:41.128Z,1.35
2022-08-30T16:02:44.213Z,1.25
2022-08-30T16:07:47.134Z,1.40
2022-08-30T16:12:51.107Z,1.40
2022-08-30T16:17:53.075Z,0.90
2022-08-30T16:22:55.010Z,1.20
2022-08-30T16:27:57.565Z,1.05
2022-08-30T16:32:59.907Z,1.25
2022-08-30T16:38:02.125Z,1.30
2022-08-30T16:43:06.392Z,1.40
2022-08-30T16:48:09.986Z,1.10
2022-08-30T16:53:14.553Z,1.10
2022-08-30T16:58:18.953Z,1.45
2022-08-30T17:03:24.420Z,1.23
2022-08-30T17:08:27.451Z,1.05
2022-08-30T17:13:30.426Z,1.42
2022-08-30T17:18:36.060Z,1.00
2022-08-30T17:23:39.196Z,1.00
2022-08-30T17:28:41.567Z,1.85
2022-08-30T17:33:45.574Z,1.40
2022-08-30T17:38:48.232Z,1.33
2022-08-30T17:43:51.243Z,1.27
2022-08-30T17:48:58.072Z,1.23
2022-08-30T17:54:05.393Z,1.88
2022-08-30T17:59:11.910Z,1.40
2022-08-30T18:04:19.690Z,1.10
2022-08-30T18:09:23.602Z,1.13
2022-08-30T18:14:26.157Z,1.15
2022-08-30T18:19:32.186Z,1.10
2022-08-30T18:24:35.334Z,1.40
2022-08-30T18:29:38.757Z,1.48
2022-08-30T18:35:06.102Z,2.13
2022-08-30T18:40:09.851Z,1.63
2022-08-30T18:45:15.115Z,1.25
2022-08-30T18:50:17.834Z,1.40
2022-08-30T18:55:22.106Z,1.65
2022-08-30T19:00:24.058Z,1.38
2022-08-30T19:05:26.446Z,1.10
2022-08-30T19:10:33.188Z,1.45
2022-08-30T19:15:36.476Z,1.67
2022-08-30T19:20:38.544Z,1.60
2022-08-30T19:25:43.738Z,1.30
2022-08-30T19:30:46.236Z,1.17
2022-08-30T19:35:51.180Z,1.60
2022-08-30T19:41:01.058Z,1.42
2022-08-30T19:46:03.575Z,1.58
2022-08-30T19:51:10.072Z,1.45
2022-08-30T19:56:13.488Z,1.77
2022-08-30T20:01:32.856Z,1.65
2022-08-30T20:06:36.066Z,2.03
2022-08-30T20:11:42.381Z,1.50
2022-08-30T20:16:47.566Z,1.80
2022-08-30T20:21:50.112Z,1.70
2022-08-30T20:26:52.197Z,1.70
2022-08-30T20:31:54.098Z,1.70
2022-08-30T20:36:57.579Z,2.15
2022-08-30T20:41:59.522Z,1.17
2022-08-30T20:47:01.605Z,1.63
2022-08-30T20:52:04.959Z,1.85
2022-08-30T20:57:07.277Z,1.63
2022-08-30T21:02:09.206Z,1.83
2022-08-30T21:07:12.954Z,1.50
2022-08-30T21:12:14.904Z,1.48
2022-08-30T21:17:18.261Z,1.30
2022-08-30T21:22:20.144Z,1.83
2022-08-30T21:27:22.492Z,1.85
2022-08-30T21:32:24.537Z,1.63
2022-08-30T21:37:27.250Z,1.60
2022-08-30T21:42:29.179Z,1.10
2022-08-30T21:47:31.325Z,1.23
2022-08-30T21:52:36.368Z,1.45
2022-08-30T21:57:38.214Z,1.25
2022-08-30T22:02:40.096Z,2.25
2022-08-30T22:07:42.131Z,1.20
2022-08-30T22:12:47.625Z,1.70
2022-08-30T22:17:49.470Z,1.80
2022-08-30T22:22:51.367Z,1.30
2022-08-30T22:27:53.324Z,1.52
2022-08-30T22:32:55.541Z,1.40
2022-08-30T22:37:57.572Z,1.45
2022-08-30T22:43:00.514Z,1.70
2022-08-30T22:48:02.557Z,1.42
2022-08-30T22:53:05.515Z,1.63
2022-08-30T22:58:07.522Z,1.30
2022-08-30T23:03:09.312Z,1.38
2022-08-30T23:08:11.432Z,1.75
2022-08-30T23:13:13.346Z,1.40
2022-08-30T23:18:15.288Z,1.50
2022-08-30T23:23:35.834Z,1.60
2022-08-30T23:28:56.218Z,1.60
2022-08-30T23:34:16.489Z,1.77
2022-08-30T23:39:36.937Z,1.30
2022-08-30T23:44:57.113Z,1.23
2022-08-30T23:50:17.580Z,1.48
2022-08-30T23:55:37.857Z,1.80
